createdAt,value
2018-05-21T00:01:51.679Z,4.50
2018-05-21T00:04:19.321Z,5.10
2018-05-21T00:06:46.976Z,5.20
2018-05-21T00:09:14.613Z,6.33
2018-05-21T00:11:42.245Z,6.43
2018-05-21T00:14:09.965Z,6.30
2018-05-21T00:16:37.583Z,6.40
2018-05-21T00:19:05.219Z,6.83
2018-05-21T00:21:32.817Z,5.20
2018-05-21T00:24:00.458Z,6.00
2018-05-21T00:26:28.052Z,5.90
2018-05-21T00:28:55.663Z,5.00
2018-05-21T00:31:23.287Z,6.80
2018-05-21T00:33:50.948Z,6.47
2018-05-21T00:36:18.545Z,5.10
2018-05-21T00:38:46.175Z,5.70
2018-05-21T00:41:13.840Z,5.67
2018-05-21T00:43:41.524Z,6.30
2018-05-21T00:46:09.182Z,5.60
2018-05-21T00:48:36.800Z,5.90
2018-05-21T00:51:04.547Z,5.77
2018-05-21T00:53:32.199Z,4.73
2018-05-21T00:55:59.780Z,6.80
2018-05-21T00:58:27.448Z,5.63
2018-05-21T01:00:55.061Z,5.70
2018-05-21T01:03:22.644Z,4.77
2018-05-21T01:05:50.316Z,6.57
2018-05-21T01:08:17.943Z,6.10
2018-05-21T01:10:45.547Z,5.53
2018-05-21T01:13:13.215Z,5.97
2018-05-21T01:15:40.887Z,5.60
2018-05-21T01:18:09.398Z,5.57
2018-05-21T01:20:37.019Z,5.27
2018-05-21T01:23:04.603Z,5.23
2018-05-21T01:25:32.264Z,5.00
2018-05-21T01:27:59.936Z,5.50
2018-05-21T01:30:27.548Z,6.30
2018-05-21T01:32:55.183Z,6.47
2018-05-21T01:35:22.853Z,5.20
2018-05-21T01:37:50.456Z,5.57
2018-05-21T01:40:18.054Z,5.20
2018-05-21T01:42:45.707Z,6.27
2018-05-21T01:45:13.290Z,5.23
2018-05-21T01:47:40.934Z,4.90
2018-05-21T01:50:15.878Z,5.63
2018-05-21T01:52:43.528Z,6.03
2018-05-21T01:55:11.127Z,4.73
2018-05-21T01:57:38.787Z,5.00
2018-05-21T02:00:06.433Z,5.87
2018-05-21T02:02:34.088Z,5.50
2018-05-21T02:05:01.710Z,6.17
2018-05-21T02:07:29.357Z,5.13
2018-05-21T02:09:56.994Z,5.13
2018-05-21T02:12:24.662Z,4.83
2018-05-21T02:14:52.250Z,4.63
2018-05-21T02:17:19.914Z,4.77
2018-05-21T02:19:47.504Z,5.87
2018-05-21T02:22:15.145Z,5.90
2018-05-21T02:24:42.754Z,5.53
2018-05-21T02:27:10.412Z,5.57
2018-05-21T02:29:38.078Z,4.30
2018-05-21T02:32:05.731Z,4.53
2018-05-21T02:34:33.406Z,5.47
2018-05-21T02:37:01.052Z,5.70
2018-05-21T02:39:28.659Z,5.37
2018-05-21T02:41:56.309Z,6.00
2018-05-21T02:44:23.913Z,5.73
2018-05-21T02:46:51.549Z,5.90
2018-05-21T02:49:19.210Z,5.67
2018-05-21T02:51:46.825Z,5.57
2018-05-21T02:54:14.453Z,5.90
2018-05-21T02:56:42.084Z,5.57
2018-05-21T02:59:09.740Z,5.30
2018-05-21T03:01:37.432Z,5.60
2018-05-21T03:04:05.032Z,5.33
2018-05-21T03:06:32.695Z,5.20
2018-05-21T03:09:00.323Z,5.53
2018-05-21T03:11:28.016Z,6.10
2018-05-21T03:13:55.600Z,4.77
2018-05-21T03:16:23.242Z,6.13
2018-05-21T03:18:50.867Z,4.97
2018-05-21T03:21:18.524Z,5.10
2018-05-21T03:23:46.132Z,6.10
2018-05-21T03:26:13.758Z,4.43
2018-05-21T03:28:41.358Z,5.87
2018-05-21T03:31:09.015Z,5.17
2018-05-21T03:33:36.678Z,5.70
2018-05-21T03:36:04.394Z,5.77
2018-05-21T03:38:32.085Z,5.67
2018-05-21T03:40:59.729Z,4.93
2018-05-21T03:43:27.384Z,5.60
2018-05-21T03:45:55.024Z,5.20
2018-05-21T03:48:22.608Z,5.50
2018-05-21T03:50:50.252Z,5.10
2018-05-21T03:53:18.965Z,5.23
2018-05-21T03:55:46.604Z,4.97
2018-05-21T03:58:25.983Z,4.77
2018-05-21T04:01:05.283Z,5.23
2018-05-21T04:03:44.709Z,5.30
2018-05-21T04:06:12.476Z,5.40
2018-05-21T04:08:40.088Z,5.17
2018-05-21T04:11:07.807Z,4.37
2018-05-21T04:13:35.482Z,5.90
2018-05-21T04:16:04.292Z,5.77
2018-05-21T04:18:31.996Z,5.33
2018-05-21T04:20:59.618Z,5.40
2018-05-21T04:23:27.276Z,4.77
2018-05-21T04:25:54.982Z,5.20
2018-05-21T04:28:23.582Z,4.53
2018-05-21T04:30:51.181Z,4.90
2018-05-21T04:33:18.849Z,5.90
2018-05-21T04:35:46.463Z,6.10
2018-05-21T04:38:14.088Z,5.80
2018-05-21T04:40:41.772Z,5.33
2018-05-21T04:43:09.430Z,4.90
2018-05-21T04:45:37.079Z,5.17
2018-05-21T04:48:04.691Z,5.00
2018-05-21T04:50:32.347Z,5.70
2018-05-21T04:53:00.057Z,5.80
2018-05-21T04:55:27.709Z,6.40
2018-05-21T04:57:55.396Z,5.50
2018-05-21T05:00:23.049Z,6.10
2018-05-21T05:02:50.645Z,6.50
2018-05-21T05:05:18.306Z,5.63
2018-05-21T05:07:45.977Z,6.43
2018-05-21T05:10:13.634Z,4.93
2018-05-21T05:12:41.317Z,5.33
2018-05-21T05:15:08.966Z,5.63
2018-05-21T05:17:36.614Z,5.30
2018-05-21T05:20:04.364Z,5.83
2018-05-21T05:22:31.981Z,5.60
2018-05-21T05:25:00.505Z,4.97
2018-05-21T05:27:28.121Z,6.10
2018-05-21T05:29:55.777Z,6.13
2018-05-21T05:32:23.377Z,7.40
2018-05-21T05:34:51.025Z,5.30
2018-05-21T05:37:18.639Z,6.50
2018-05-21T05:39:46.470Z,6.90
2018-05-21T05:42:14.245Z,4.70
2018-05-21T05:44:42.344Z,5.00
2018-05-21T05:47:10.319Z,4.77
2018-05-21T05:49:38.222Z,6.57
2018-05-21T05:52:06.087Z,6.80
2018-05-21T05:54:35.213Z,6.77
2018-05-21T05:57:03.215Z,6.27
2018-05-21T05:59:31.033Z,6.70
2018-05-21T06:01:59.218Z,5.07
2018-05-21T06:04:28.037Z,5.33
2018-05-21T06:06:55.762Z,5.40
2018-05-21T06:09:23.900Z,4.87
2018-05-21T06:11:51.810Z,4.50
2018-05-21T06:14:20.564Z,5.30
2018-05-21T06:16:48.363Z,5.90
2018-05-21T06:19:17.271Z,6.10
2018-05-21T06:21:45.029Z,6.93
2018-05-21T06:24:12.802Z,6.23
2018-05-21T06:26:42.018Z,7.00
2018-05-21T06:29:09.901Z,6.80
2018-05-21T06:31:37.573Z,6.37
2018-05-21T06:34:05.297Z,7.10
2018-05-21T06:36:32.986Z,7.67
2018-05-21T06:39:00.633Z,7.53
2018-05-21T06:41:28.340Z,7.40
2018-05-21T06:43:55.951Z,7.23
2018-05-21T06:46:23.566Z,7.77
2018-05-21T06:48:51.883Z,7.00
2018-05-21T06:51:20.364Z,8.80
2018-05-21T06:53:48.824Z,7.87
2018-05-21T06:56:17.433Z,7.97
2018-05-21T06:58:45.180Z,8.20
2018-05-21T07:01:12.905Z,8.90
2018-05-21T07:03:40.633Z,7.13
2018-05-21T07:06:08.667Z,7.33
2018-05-21T07:08:36.347Z,7.33
2018-05-21T07:11:03.998Z,8.03
2018-05-21T07:13:31.741Z,7.97
2018-05-21T07:15:59.585Z,7.33
2018-05-21T07:18:27.757Z,7.37
2018-05-21T07:20:57.097Z,7.07
2018-05-21T07:23:24.842Z,6.37
2018-05-21T07:25:52.846Z,7.40
2018-05-21T07:28:22.466Z,7.30
2018-05-21T07:30:50.839Z,8.67
2018-05-21T07:33:18.693Z,7.73
2018-05-21T07:35:46.943Z,8.27
2018-05-21T07:38:14.841Z,6.23
2018-05-21T07:40:45.194Z,6.20
2018-05-21T07:43:12.832Z,6.97
2018-05-21T07:45:40.663Z,6.53
2018-05-21T07:48:08.325Z,6.50
2018-05-21T07:50:36.091Z,6.93
2018-05-21T07:53:06.563Z,5.27
2018-05-21T07:55:34.181Z,6.77
2018-05-21T07:58:01.855Z,7.00
2018-05-21T08:00:29.540Z,6.53
2018-05-21T08:02:57.181Z,6.30
2018-05-21T08:05:24.907Z,7.33
2018-05-21T08:07:52.607Z,7.40
2018-05-21T08:10:20.357Z,6.60
2018-05-21T08:12:48.074Z,6.07
2018-05-21T08:15:15.743Z,6.60
2018-05-21T08:17:43.446Z,6.67
2018-05-21T08:20:11.353Z,7.50
2018-05-21T08:22:39.013Z,5.77
2018-05-21T08:25:06.675Z,5.27
2018-05-21T08:27:34.361Z,6.63
2018-05-21T08:30:02.056Z,6.70
2018-05-21T08:32:29.681Z,6.77
2018-05-21T08:34:57.349Z,5.53
2018-05-21T08:37:25.035Z,6.00
2018-05-21T08:39:52.713Z,6.60
2018-05-21T08:42:21.214Z,5.17
2018-05-21T08:44:48.831Z,6.10
2018-05-21T08:47:16.504Z,5.30
2018-05-21T08:49:44.125Z,4.87
2018-05-21T08:52:11.797Z,5.30
2018-05-21T08:54:39.410Z,4.73
2018-05-21T08:57:07.116Z,6.13
2018-05-21T08:59:34.723Z,4.80
2018-05-21T09:02:02.451Z,5.10
2018-05-21T09:04:30.197Z,4.93
2018-05-21T09:06:57.870Z,5.10
2018-05-21T09:09:25.550Z,4.63
2018-05-21T09:11:53.218Z,6.60
2018-05-21T09:14:20.844Z,4.40
2018-05-21T09:16:48.617Z,5.40
2018-05-21T09:19:17.114Z,4.83
2018-05-21T09:21:44.773Z,5.37
2018-05-21T09:24:12.473Z,5.20
2018-05-21T09:26:40.155Z,4.73
2018-05-21T09:29:07.844Z,4.63
2018-05-21T09:31:35.576Z,4.60
2018-05-21T09:34:03.214Z,5.70
2018-05-21T09:36:30.907Z,4.37
2018-05-21T09:38:58.548Z,4.87
2018-05-21T09:41:26.245Z,4.10
2018-05-21T09:43:53.860Z,4.53
2018-05-21T09:46:21.534Z,5.00
2018-05-21T09:48:49.208Z,4.43
2018-05-21T09:51:16.908Z,5.50
2018-05-21T09:53:44.548Z,5.03
2018-05-21T09:56:12.207Z,4.07
2018-05-21T09:58:39.832Z,4.07
2018-05-21T10:01:07.515Z,4.87
2018-05-21T10:03:35.214Z,3.90
2018-05-21T10:06:02.872Z,4.40
2018-05-21T10:08:30.549Z,4.57
2018-05-21T10:10:59.194Z,3.47
2018-05-21T10:13:26.790Z,3.90
2018-05-21T10:15:54.438Z,4.03
2018-05-21T10:18:22.139Z,4.60
2018-05-21T10:20:49.766Z,4.47
2018-05-21T10:23:17.429Z,4.27
2018-05-21T10:25:45.054Z,5.00
2018-05-21T10:28:12.735Z,3.67
2018-05-21T10:30:40.350Z,3.87
2018-05-21T10:33:08.074Z,3.70
2018-05-21T10:35:35.711Z,4.27
2018-05-21T10:38:03.384Z,3.80
2018-05-21T10:40:31.084Z,3.70
2018-05-21T10:42:58.695Z,4.27
2018-05-21T10:45:26.369Z,4.30
2018-05-21T10:47:54.022Z,3.97
2018-05-21T10:50:21.663Z,3.80
2018-05-21T10:52:49.301Z,3.63
2018-05-21T10:55:17.019Z,3.60
2018-05-21T10:57:44.775Z,4.77
2018-05-21T11:00:12.399Z,4.40
2018-05-21T11:02:40.135Z,3.97
2018-05-21T11:05:07.809Z,3.83
2018-05-21T11:07:35.507Z,3.70
2018-05-21T11:10:03.168Z,3.13
2018-05-21T11:12:30.879Z,3.80
2018-05-21T11:14:58.630Z,4.80
2018-05-21T11:17:26.288Z,3.70
2018-05-21T11:19:53.952Z,3.60
2018-05-21T11:22:21.585Z,4.33
2018-05-21T11:24:49.245Z,3.83
2018-05-21T11:27:16.941Z,3.30
2018-05-21T11:29:44.616Z,3.60
2018-05-21T11:32:12.229Z,3.93
2018-05-21T11:34:39.917Z,4.10
2018-05-21T11:37:07.602Z,4.07
2018-05-21T11:39:35.255Z,3.23
2018-05-21T11:42:02.859Z,3.23
2018-05-21T11:44:30.556Z,4.50
2018-05-21T11:46:58.649Z,4.40
2018-05-21T11:49:27.495Z,6.47
2018-05-21T11:51:55.194Z,4.80
2018-05-21T11:54:22.919Z,3.67
2018-05-21T11:56:51.135Z,3.90
2018-05-21T11:59:19.008Z,4.20
2018-05-21T12:01:46.624Z,4.40
2018-05-21T12:04:14.313Z,3.20
2018-05-21T12:06:41.972Z,3.97
2018-05-21T12:09:09.701Z,3.70
2018-05-21T12:11:37.367Z,3.50
2018-05-21T12:14:05.084Z,4.03
2018-05-21T12:16:32.728Z,3.70
2018-05-21T12:19:00.393Z,3.80
2018-05-21T12:21:28.089Z,4.10
2018-05-21T12:23:55.787Z,3.67
2018-05-21T12:26:23.951Z,3.73
2018-05-21T12:28:51.645Z,4.33
2018-05-21T12:31:19.293Z,3.53
2018-05-21T12:33:46.919Z,2.90
2018-05-21T12:36:14.587Z,3.37
2018-05-21T12:38:42.216Z,3.60
2018-05-21T12:41:09.959Z,4.23
2018-05-21T12:43:37.613Z,3.80
2018-05-21T12:46:05.440Z,2.83
2018-05-21T12:48:33.191Z,4.57
2018-05-21T12:51:00.811Z,3.10
2018-05-21T12:53:28.555Z,3.40
2018-05-21T12:55:56.228Z,4.27
2018-05-21T12:58:23.873Z,3.57
2018-05-21T13:00:51.503Z,3.30
2018-05-21T13:03:19.157Z,4.00
2018-05-21T13:05:46.760Z,3.60
2018-05-21T13:08:14.456Z,3.40
2018-05-21T13:10:42.078Z,3.57
2018-05-21T13:13:09.811Z,3.90
2018-05-21T13:15:37.461Z,4.27
2018-05-21T13:18:05.197Z,4.33
2018-05-21T13:20:32.887Z,3.83
2018-05-21T13:23:00.556Z,3.27
2018-05-21T13:25:28.167Z,3.63
2018-05-21T13:27:55.872Z,2.90
2018-05-21T13:30:23.552Z,3.60
2018-05-21T13:32:51.248Z,2.70
2018-05-21T13:35:18.904Z,3.60
2018-05-21T13:37:46.516Z,3.60
2018-05-21T13:40:15.355Z,3.87
2018-05-21T13:42:43.038Z,3.43
2018-05-21T13:45:10.658Z,3.70
2018-05-21T13:47:38.337Z,2.93
2018-05-21T13:50:06.042Z,3.00
2018-05-21T13:52:33.722Z,3.40
2018-05-21T13:55:01.374Z,3.57
2018-05-21T13:57:29.019Z,3.23
2018-05-21T13:59:56.677Z,2.70
2018-05-21T14:02:24.280Z,3.33
2018-05-21T14:04:52.364Z,2.90
2018-05-21T14:07:20.981Z,3.50
2018-05-21T14:09:48.611Z,2.83
2018-05-21T14:12:16.858Z,3.00
2018-05-21T14:14:44.671Z,3.30
2018-05-21T14:17:12.395Z,2.40
2018-05-21T14:19:40.102Z,3.30
2018-05-21T14:22:07.725Z,3.17
2018-05-21T14:24:35.378Z,2.83
2018-05-21T14:27:04.023Z,3.77
2018-05-21T14:29:31.859Z,3.40
2018-05-21T14:31:59.582Z,3.30
2018-05-21T14:34:27.385Z,3.63
2018-05-21T14:36:55.112Z,3.23
2018-05-21T14:39:22.769Z,2.50
2018-05-21T14:41:50.575Z,2.70
2018-05-21T14:44:18.190Z,3.27
2018-05-21T14:46:45.909Z,3.13
2018-05-21T14:49:13.544Z,3.57
2018-05-21T14:51:41.249Z,2.63
2018-05-21T14:54:08.979Z,2.70
2018-05-21T14:56:36.955Z,3.80
2018-05-21T14:59:04.734Z,2.23
2018-05-21T15:01:32.580Z,2.80
2018-05-21T15:04:00.239Z,2.20
2018-05-21T15:06:27.994Z,2.93
2018-05-21T15:08:55.600Z,3.20
2018-05-21T15:11:23.296Z,3.07
2018-05-21T15:13:51.016Z,2.63
2018-05-21T15:16:18.626Z,2.67
2018-05-21T15:18:46.312Z,2.93
2018-05-21T15:21:13.917Z,2.90
2018-05-21T15:23:41.634Z,2.80
2018-05-21T15:26:09.281Z,2.47
2018-05-21T15:28:36.957Z,2.53
2018-05-21T15:31:04.654Z,2.97
2018-05-21T15:33:32.995Z,2.53
2018-05-21T15:36:00.721Z,3.30
2018-05-21T15:38:28.455Z,2.67
2018-05-21T15:40:56.149Z,2.70
2018-05-21T15:43:23.843Z,2.80
2018-05-21T15:45:51.495Z,2.70
2018-05-21T15:48:19.187Z,2.90
2018-05-21T15:50:46.845Z,2.83
2018-05-21T15:53:14.525Z,3.03
2018-05-21T15:55:42.150Z,2.87
2018-05-21T15:58:09.878Z,2.93
2018-05-21T16:00:37.483Z,2.73
2018-05-21T16:03:06.095Z,2.87
2018-05-21T16:05:33.848Z,2.60
2018-05-21T16:08:01.492Z,2.73
2018-05-21T16:10:29.208Z,2.57
2018-05-21T16:12:58.049Z,3.00
2018-05-21T16:15:25.759Z,3.13
2018-05-21T16:17:53.464Z,2.70
2018-05-21T16:20:21.083Z,2.90
2018-05-21T16:22:48.743Z,2.40
2018-05-21T16:25:16.542Z,2.73
2018-05-21T16:27:44.302Z,2.83
2018-05-21T16:30:12.280Z,2.77
2018-05-21T16:32:39.931Z,2.83
2018-05-21T16:35:07.600Z,2.83
2018-05-21T16:37:35.343Z,2.60
2018-05-21T16:40:03.097Z,2.90
2018-05-21T16:42:30.808Z,2.57
2018-05-21T16:44:58.477Z,2.67
2018-05-21T16:47:26.143Z,2.47
2018-05-21T16:49:53.889Z,2.93
2018-05-21T16:52:21.525Z,3.07
2018-05-21T16:54:49.235Z,2.53
2018-05-21T16:57:16.876Z,2.47
2018-05-21T16:59:44.537Z,4.13
2018-05-21T17:02:12.242Z,4.30
2018-05-21T17:04:39.856Z,2.50
2018-05-21T17:07:07.577Z,2.77
2018-05-21T17:09:35.294Z,2.83
2018-05-21T17:12:03.099Z,3.20
2018-05-21T17:14:31.542Z,2.73
2018-05-21T17:16:59.389Z,2.80
2018-05-21T17:19:27.100Z,2.60
2018-05-21T17:21:55.321Z,2.70
2018-05-21T17:24:23.008Z,3.07
2018-05-21T17:26:50.712Z,3.30
2018-05-21T17:29:18.501Z,2.80
2018-05-21T17:31:46.220Z,3.00
2018-05-21T17:34:13.881Z,3.40
2018-05-21T17:36:41.693Z,3.27
2018-05-21T17:39:10.532Z,2.80
2018-05-21T17:41:38.277Z,3.07
2018-05-21T17:44:06.630Z,2.80
2018-05-21T17:46:34.297Z,2.80
2018-05-21T17:49:02.043Z,3.00
2018-05-21T17:51:29.754Z,3.03
2018-05-21T17:53:57.410Z,2.43
2018-05-21T17:56:26.241Z,3.10
2018-05-21T17:58:54.142Z,3.43
2018-05-21T18:01:21.798Z,3.70
2018-05-21T18:03:49.664Z,3.57
2018-05-21T18:06:17.394Z,3.73
2018-05-21T18:08:45.158Z,3.93
2018-05-21T18:11:12.897Z,3.00
2018-05-21T18:13:41.463Z,3.13
2018-05-21T18:16:09.487Z,3.20
2018-05-21T18:18:37.287Z,2.63
2018-05-21T18:21:06.145Z,3.30
2018-05-21T18:23:33.828Z,3.37
2018-05-21T18:26:01.560Z,2.93
2018-05-21T18:28:29.358Z,4.13
2018-05-21T18:30:57.124Z,2.93
2018-05-21T18:33:25.068Z,3.90
2018-05-21T18:35:53.633Z,3.73
2018-05-21T18:38:22.238Z,4.00
2018-05-21T18:40:50.414Z,3.40
2018-05-21T18:43:18.921Z,2.83
2018-05-21T18:45:46.685Z,3.80
2018-05-21T18:48:15.600Z,2.87
2018-05-21T18:50:44.251Z,3.07
2018-05-21T18:53:12.016Z,3.17
2018-05-21T18:55:40.042Z,3.90
2018-05-21T18:58:09.322Z,3.10
2018-05-21T19:00:38.676Z,3.80
2018-05-21T19:03:07.723Z,3.43
2018-05-21T19:05:35.833Z,3.73
2018-05-21T19:08:03.623Z,3.17
2018-05-21T19:10:32.036Z,3.37
2018-05-21T19:13:01.683Z,3.37
2018-05-21T19:15:29.364Z,3.63
2018-05-21T19:17:57.462Z,3.63
2018-05-21T19:20:25.444Z,3.60
2018-05-21T19:22:54.364Z,4.30
2018-05-21T19:25:22.604Z,3.70
2018-05-21T19:27:50.771Z,3.57
2018-05-21T19:30:19.085Z,3.70
2018-05-21T19:32:48.199Z,4.03
2018-05-21T19:35:16.508Z,4.00
2018-05-21T19:37:44.599Z,4.13
2018-05-21T19:40:13.095Z,4.40
2018-05-21T19:42:41.211Z,3.40
2018-05-21T19:45:09.017Z,3.60
2018-05-21T19:47:37.765Z,3.80
2018-05-21T19:50:06.515Z,3.17
2018-05-21T19:52:34.764Z,3.50
2018-05-21T19:55:02.599Z,3.23
2018-05-21T19:57:32.654Z,3.37
2018-05-21T20:00:00.653Z,4.10
2018-05-21T20:02:31.963Z,4.10
2018-05-21T20:04:59.876Z,3.77
2018-05-21T20:07:28.419Z,4.70
2018-05-21T20:09:56.391Z,5.30
2018-05-21T20:12:24.503Z,4.80
2018-05-21T20:14:52.918Z,3.93
2018-05-21T20:17:21.216Z,4.10
2018-05-21T20:19:49.777Z,3.93
2018-05-21T20:22:18.817Z,3.10
2018-05-21T20:24:47.596Z,3.13
2018-05-21T20:27:15.733Z,3.40
2018-05-21T20:29:43.480Z,4.17
2018-05-21T20:32:11.276Z,4.03
2018-05-21T20:34:39.040Z,4.70
2018-05-21T20:37:07.215Z,3.33
2018-05-21T20:39:34.954Z,4.53
2018-05-21T20:42:02.768Z,4.90
2018-05-21T20:44:30.478Z,4.30
2018-05-21T20:46:58.131Z,3.97
2018-05-21T20:49:25.833Z,4.20
2018-05-21T20:51:53.484Z,5.67
2018-05-21T20:54:21.199Z,5.47
2018-05-21T20:56:49.760Z,4.73
2018-05-21T20:59:17.528Z,3.97
2018-05-21T21:01:45.184Z,4.60
2018-05-21T21:04:12.793Z,4.40
2018-05-21T21:06:40.550Z,4.77
2018-05-21T21:09:08.168Z,4.63
2018-05-21T21:11:35.836Z,4.03
2018-05-21T21:14:03.486Z,3.80
2018-05-21T21:16:31.144Z,4.23
2018-05-21T21:18:58.771Z,5.40
2018-05-21T21:21:26.474Z,5.17
2018-05-21T21:23:54.169Z,4.33
2018-05-21T21:26:22.618Z,4.20
2018-05-21T21:28:50.251Z,3.70
2018-05-21T21:31:17.962Z,3.30
2018-05-21T21:33:45.572Z,5.07
2018-05-21T21:36:13.249Z,4.70
2018-05-21T21:38:40.906Z,8.63
2018-05-21T21:41:08.515Z,7.17
2018-05-21T21:43:36.912Z,4.70
2018-05-21T21:46:05.099Z,3.87
2018-05-21T21:48:32.774Z,4.37
2018-05-21T21:51:00.448Z,5.27
2018-05-21T21:53:28.316Z,4.40
2018-05-21T21:55:55.910Z,3.90
2018-05-21T21:58:23.548Z,3.70
2018-05-21T22:00:51.182Z,4.90
2018-05-21T22:03:19.051Z,5.57
2018-05-21T22:05:46.644Z,4.03
2018-05-21T22:08:14.498Z,4.50
2018-05-21T22:10:42.165Z,4.10
2018-05-21T22:13:09.817Z,5.07
2018-05-21T22:15:37.887Z,4.90
2018-05-21T22:18:05.766Z,5.47
2018-05-21T22:20:33.438Z,5.50
2018-05-21T22:23:01.089Z,4.10
2018-05-21T22:25:28.721Z,3.87
2018-05-21T22:27:56.429Z,4.30
2018-05-21T22:30:24.516Z,4.10
2018-05-21T22:32:52.196Z,4.23
2018-05-21T22:35:19.809Z,4.80
2018-05-21T22:37:47.573Z,4.40
2018-05-21T22:40:15.181Z,4.10
2018-05-21T22:42:45.253Z,5.30
2018-05-21T22:45:12.924Z,4.20
2018-05-21T22:47:40.577Z,4.77
2018-05-21T22:50:08.183Z,4.87
2018-05-21T22:52:35.947Z,4.23
2018-05-21T22:55:03.602Z,4.03
2018-05-21T22:57:31.251Z,4.70
2018-05-21T22:59:58.851Z,4.30
2018-05-21T23:02:26.442Z,4.13
2018-05-21T23:04:54.138Z,4.30
2018-05-21T23:07:21.731Z,5.10
2018-05-21T23:09:49.425Z,4.70
2018-05-21T23:12:17.036Z,4.00
2018-05-21T23:14:44.704Z,4.60
2018-05-21T23:17:12.345Z,4.10
2018-05-21T23:19:40.019Z,4.33
2018-05-21T23:22:07.853Z,4.60
2018-05-21T23:24:35.501Z,3.67
2018-05-21T23:27:03.595Z,3.83
2018-05-21T23:29:31.448Z,4.27
2018-05-21T23:31:59.041Z,4.13
2018-05-21T23:34:26.782Z,5.30
2018-05-21T23:36:55.673Z,3.90
2018-05-21T23:39:23.286Z,4.53
2018-05-21T23:41:50.949Z,5.17
2018-05-21T23:44:18.620Z,3.90
2018-05-21T23:46:46.320Z,3.97
2018-05-21T23:49:13.894Z,4.73
2018-05-21T23:51:41.642Z,4.40
2018-05-21T23:54:09.264Z,4.23
2018-05-21T23:56:38.229Z,3.60
2018-05-21T23:59:06.500Z,5.00
